Vores vejrinfo findes også på:

UK Metoffice

European Weather Network

Weather Underground



Stationer ""tæt på"" METAR Rapporter

   
EKEB - Esbjerg, Denmark
Afstand fra denne vejrstation: NNV 29 km
Opdateret: 20-05-2019 23:20
Mest overskyet  
Mest overskyet  
   Vind fra: North 4.1 m/s
Vind fra: North 4.1 m/s
Temperatur: 13°C
Dugpunkt: 12°C
Luftfugtighed: 94%
Barometer: 1008 hPa
Skyer: Mest overskyet
Sigtbarhed: More than 10 km
Sky detaljer: Mest overskyet 700 ft
EKEB 202120Z AUTO 36008KT 9999 BKN007/// 13/12 Q1008
EKSP - Skrydstrup(Dan-A, Denmark
Afstand fra denne vejrstation: Ø 35 km
Opdateret: 20-05-2019 23:20
Klart  
Klart  
   Vind fra: North 2.1 m/s
Vind fra: North 2.1 m/s
Temperatur: 14°C
Dugpunkt: 11°C
Luftfugtighed: 82%
Barometer: 1007 hPa
Sigtbarhed: More than 10 km
Sky detaljer: Klart
EKSP 202120Z 35004KT 330V030 CAVOK 14/11 Q1007
EKBI - Billund Airport, Denmark
Afstand fra denne vejrstation: NNØ 56 km
Opdateret: 20-05-2019 23:20
Overskyet  
Overskyet  
   Vind fra: North 3.6 m/s
Vind fra: North 3.6 m/s
Temperatur: 13°C
Dugpunkt: 12°C
Luftfugtighed: 94%
Barometer: 1008 hPa
Skyer: Overskyet
Sigtbarhed: More than 10 km
Sky detaljer: Overskyet 800 ft
EKBI 202120Z AUTO 35007KT 320V020 9999 OVC008/// 13/12 Q1008
EKSB - Sonderborg Airpo, Denmark
Afstand fra denne vejrstation: ØSØ 76 km
Opdateret: 20-05-2019 22:20
Data er IKKE opdaterede!
Klart  
Klart  
   Vind fra: North 1 m/s
Vind fra: North 1 m/s
Temperatur: 16°C
Dugpunkt: 14°C
Luftfugtighed: 88%
Barometer: 1006 hPa
Sigtbarhed: More than 10 km
Sky detaljer: Klart
EKSB 202020Z 36002KT CAVOK 16/14 Q1006
EKVD - Vamdrup (aut/man), Denmark
Afstand fra denne vejrstation: ØNØ 41 km
Opdateret: 20-05-2019 23:20
  
  
   Vind fra: North 2.6 m/s
Vind fra: North 2.6 m/s
Temperatur: 14°C
Dugpunkt: 12°C
Luftfugtighed: 88%
Barometer: 1008 hPa
EKVD 202120Z AUTO 36005KT //// ///////// 14/12 Q1008
EDXW - Westerland/Sylt, Germany
Afstand fra denne vejrstation: SSV 47 km
Opdateret: 20-05-2019 15:20
Data er IKKE opdaterede!
Patches of, Tåge, Få skyer  
Patches of, Tåge, Få skyer  
   Vind fra: NV 4.1 m/s
Vind fra: NV 4.1 m/s
Temperatur: 19°C
Dugpunkt: 16°C
Luftfugtighed: 83%
Barometer: 1007 hPa
Skyer: Få skyer
Sigtbarhed: More than 10 km
Sky detaljer: Få skyer 2200 ft
EDXW 201320Z 32008KT 290V350 9999 2000W BCFG FEW022 19/16 Q1007

Original script by  Saratoga-weather.org Adapted for the template by  Weerstation Leuven

Der anvendes følgende:

Vejrstation
Davis VP2

Vejrprogram
Meteohub

Server
RaspberryPI 3 model B

Davis VP2

Meteohub

RaspberryPI 3 model B